Saturday, February 24, 2018, 9:59 AM CST
Back to Local

KJOT, Joliet, Joliet Regional Airport

Location: Joliet, IL, United States Lat: 41.518
Local Time: 9:59 AM CST (15:59 GMT) Lon: -88.175
Time Zone: US/Central Elev: 580 ft

Show me the last for .
Show Decoded

2018-02-24 09:35 METAR KJOT 241535Z AUTO 08010KT 10SM SCT019 BKN070 OVC080 04/01 A3012 RMK AO2
                 T00380007 =
2018-02-24 09:15 METAR KJOT 241515Z AUTO 07010KT 10SM SCT017 SCT070 OVC080 03/00 A3013 RMK AO2
                 T00330003 =
2018-02-24 08:55 METAR KJOT 241455Z AUTO 07009KT 10SM SCT070 OVC090 03/00 A3014 RMK AO2 T00300001
                 =
2018-02-24 08:35 METAR KJOT 241435Z AUTO 07011G14KT 10SM BKN080 OVC090 03/00 A3015 RMK AO2
                 T00270000 =
2018-02-24 08:15 METAR KJOT 241415Z AUTO 07009KT 10SM OVC090 03/00 A3016 RMK AO2 T00251001 =
2018-02-24 07:55 METAR KJOT 241355Z AUTO 07008G16KT 10SM OVC090 02/00 A3016 RMK AO2 T00211004 =
2018-02-24 07:35 METAR KJOT 241335Z AUTO 08010G15KT 10SM OVC090 02/00 A3016 RMK AO2 T00201004 =
2018-02-24 07:15 METAR KJOT 241315Z AUTO 08010G17KT 10SM SCT015 OVC090 02/00 A3016 RMK AO2
                 T00200000 =
2018-02-24 06:55 METAR KJOT 241255Z AUTO 07010G15KT 10SM OVC015 02/00 A3015 RMK AO2 T00200000 =
2018-02-24 06:35 METAR KJOT 241235Z AUTO 07010G15KT 10SM OVC013 02/01 A3016 RMK AO2 T00210005 =
2018-02-24 06:15 METAR KJOT 241215Z AUTO 07011G14KT 10SM OVC013 02/01 A3016 RMK AO2 T00220006 =
2018-02-24 05:55 METAR KJOT 241155Z AUTO 06008KT 10SM OVC013 02/01 A3017 RMK AO2 T00210006 10021
                 20008 =
2018-02-24 05:35 METAR KJOT 241135Z AUTO 06005KT 7SM BKN013 BKN022 OVC095 02/00 A3017 RMK AO2
                 T00170000 =
2018-02-24 05:15 METAR KJOT 241115Z AUTO 05007KT 10SM BKN022 OVC095 02/00 A3017 RMK AO2 T00150000
                 =
2018-02-24 04:55 METAR KJOT 241055Z AUTO 05005KT 10SM OVC022 01/00 A3019 RMK AO2 T00141001 =
2018-02-24 04:35 METAR KJOT 241035Z AUTO 05005KT 10SM BKN020 OVC100 01/00 A3019 RMK AO2 T00131003
                 =
2018-02-24 04:15 METAR KJOT 241015Z AUTO 05006KT 10SM BKN018 OVC100 01/00 A3019 RMK AO2 T00121003
                 =
2018-02-24 03:55 METAR KJOT 240955Z AUTO 04007KT 10SM SCT018 OVC100 01/00 A3020 RMK AO2 T00111005
                 =
2018-02-24 03:35 METAR KJOT 240935Z AUTO 05006KT 10SM BKN100 01/M01 A3021 RMK AO2 T00101006 =
2018-02-24 03:15 METAR KJOT 240915Z AUTO 05005KT 10SM SCT100 01/M01 A3022 RMK AO2 T00101007 =
2018-02-24 02:55 METAR KJOT 240855Z AUTO 04004KT 10SM CLR 01/M01 A3022 RMK AO2 T00091006 =
2018-02-24 02:35 METAR KJOT 240835Z AUTO 03003KT 10SM CLR 01/M01 A3023 RMK AO2 T00101006 =
2018-02-24 02:15 METAR KJOT 240815Z AUTO 00000KT 10SM CLR 01/M01 A3024 RMK AO2 T00111007 =
2018-02-24 01:55 METAR KJOT 240755Z AUTO 03004KT 10SM CLR 01/M01 A3023 RMK AO2 T00111007 =
2018-02-24 01:35 METAR KJOT 240735Z AUTO 04004KT 10SM CLR 01/M01 A3023 RMK AO2 T00111007 =
2018-02-24 01:15 METAR KJOT 240715Z AUTO 04003KT 10SM CLR 01/00 A3023 RMK AO2 T00131005 =
2018-02-24 00:55 METAR KJOT 240655Z AUTO 36006KT 10SM CLR 01/00 A3022 RMK AO2 T00121002 =
2018-02-24 00:35 METAR KJOT 240635Z AUTO 01005KT 7SM CLR 01/00 A3022 RMK AO2 T00100000 =
2018-02-24 00:15 METAR KJOT 240615Z AUTO 35003KT 7SM CLR 01/00 A3026 RMK AO2 T00100000 =
2018-02-23 23:55 METAR KJOT 240555Z AUTO 36005KT 7SM CLR 01/00 A3025 RMK AO2 T00100000 10041
                 20010 400730010 =
2018-02-23 23:35 METAR KJOT 240535Z AUTO 34003KT 7SM CLR 01/00 A3026 RMK AO2 T00110000 =
2018-02-23 23:15 METAR KJOT 240515Z AUTO 34004KT 10SM CLR 01/00 A3027 RMK AO2 T00120000 =
2018-02-23 22:55 METAR KJOT 240455Z AUTO 35003KT 10SM CLR 02/00 A3027 RMK AO2 T00150001 =
2018-02-23 22:35 METAR KJOT 240435Z AUTO 00000KT 10SM CLR 02/00 A3027 RMK AO2 T00160003 =
2018-02-23 22:15 METAR KJOT 240415Z AUTO 30003KT 10SM CLR 02/01 A3028 RMK AO2 T00180005 =
2018-02-23 21:55 METAR KJOT 240355Z AUTO 29003KT 10SM CLR 02/01 A3028 RMK AO2 T00200007 =
2018-02-23 21:35 METAR KJOT 240335Z AUTO 28003KT 10SM CLR 03/01 A3028 RMK AO2 T00250010 =
2018-02-23 21:15 METAR KJOT 240315Z AUTO 00000KT 10SM CLR 03/01 A3027 RMK AO2 T00270010 =
2018-02-23 20:55 METAR KJOT 240255Z AUTO 27003KT 10SM SCT020 03/01 A3028 RMK AO2 T00300011 =
2018-02-23 20:35 METAR KJOT 240235Z AUTO 00000KT 10SM SCT020 03/02 A3027 RMK AO2 T00330018 =
2018-02-23 20:15 METAR KJOT 240215Z AUTO 27003KT 10SM BKN020 04/02 A3026 RMK AO2 T00350018 =
2018-02-23 19:55 METAR KJOT 240155Z AUTO 00000KT 10SM OVC020 04/02 A3026 RMK AO2 T00350020 =
2018-02-23 19:35 METAR KJOT 240135Z AUTO 00000KT 10SM BKN020 04/02 A3026 RMK AO2 T00370020 =
2018-02-23 19:15 METAR KJOT 240115Z AUTO 00000KT 10SM OVC020 04/02 A3026 RMK AO2 T00400020 =
2018-02-23 18:55 METAR KJOT 240055Z AUTO 00000KT 10SM OVC020 04/02 A3027 RMK AO2 T00400018 =
2018-02-23 18:35 METAR KJOT 240035Z AUTO 24003KT 10SM OVC020 04/02 A3027 RMK AO2 T00410016 =
2018-02-23 18:15 METAR KJOT 240015Z AUTO 28003KT 10SM OVC018 04/02 A3026 RMK AO2 T00410016 =
2018-02-23 17:55 METAR KJOT 232355Z AUTO 28003KT 10SM OVC016 04/02 A3026 RMK AO2 T00410016 10046
                 20036 =
2018-02-23 17:35 METAR KJOT 232335Z AUTO 27004KT 10SM OVC016 04/02 A3025 RMK AO2 T00400017 =
2018-02-23 17:15 METAR KJOT 232315Z AUTO 28006KT 10SM OVC016 04/02 A3025 RMK AO2 T00400015 =
2018-02-23 16:55 METAR KJOT 232255Z AUTO 28008G14KT 10SM OVC014 04/01 A3025 RMK AO2 T00400014 =
2018-02-23 16:35 METAR KJOT 232235Z AUTO 27008KT 10SM OVC012 04/02 A3024 RMK AO2 T00380017 =
2018-02-23 16:15 METAR KJOT 232215Z AUTO 27008KT 10SM OVC012 04/02 A3024 RMK AO2 T00390017 =
2018-02-23 15:55 METAR KJOT 232155Z AUTO 29007KT 10SM OVC010 04/02 A3023 RMK AO2 T00380020 =
2018-02-23 15:35 METAR KJOT 232135Z AUTO 28007KT 10SM OVC010 04/02 A3024 RMK AO2 T00360020 =
2018-02-23 15:15 METAR KJOT 232115Z AUTO 28009KT 10SM OVC010 04/02 A3024 RMK AO2 T00370022 =
2018-02-23 14:55 METAR KJOT 232055Z AUTO 27010G15KT 240V320 10SM OVC010 04/02 A3023 RMK AO2
                 T00390020 =
2018-02-23 14:35 METAR KJOT 232035Z AUTO 27008G14KT 10SM OVC010 04/02 A3023 RMK AO2 T00400023 =
2018-02-23 14:15 METAR KJOT 232015Z AUTO 27009KT 10SM OVC010 04/02 A3022 RMK AO2 T00410022 =
2018-02-23 13:55 METAR KJOT 231955Z AUTO 26009G15KT 10SM OVC010 04/03 A3021 RMK AO2 T00420025 =
2018-02-23 13:35 METAR KJOT 231935Z AUTO 27009KT 10SM OVC010 04/03 A3021 RMK AO2 T00420026 =
2018-02-23 13:15 METAR KJOT 231915Z AUTO 28009KT 10SM OVC010 05/03 A3021 RMK AO2 T00450028 =
2018-02-23 12:55 METAR KJOT 231855Z AUTO 28011G18KT 10SM OVC010 04/03 A3021 RMK AO2 T00440027 =
2018-02-23 12:35 METAR KJOT 231835Z AUTO 27011KT 10SM OVC010 04/03 A3021 RMK AO2 T00440030 =
2018-02-23 12:15 METAR KJOT 231815Z AUTO 27015G19KT 10SM OVC010 05/03 A3021 RMK AO2 T00460030 =
2018-02-23 11:55 METAR KJOT 231755Z AUTO 27010G19KT 10SM OVC010 05/03 A3021 RMK AO2 T00470030
                 10073 20045 =
2018-02-23 11:35 METAR KJOT 231735Z AUTO 26010G16KT 10SM OVC008 05/03 A3021 RMK AO2 T00450032 =
2018-02-23 11:15 METAR KJOT 231715Z AUTO 28011G14KT 10SM OVC008 05/04 A3020 RMK AO2 T00460035 =
2018-02-23 10:55 METAR KJOT 231655Z AUTO 28010G17KT 10SM OVC010 05/04 A3019 RMK AO2 T00520040 =
2018-02-23 10:35 METAR KJOT 231635Z AUTO 27012G17KT 10SM OVC010 06/04 A3018 RMK AO2 T00560040 =
2018-02-23 10:15 METAR KJOT 231615Z AUTO 27012G18KT 10SM OVC010 06/04 A3017 RMK AO2 T00580044 =

Support USWX by starting your Amazon purchase here.